sensor_id;sensor_type;location;lat;lon;timestamp;P1;durP1;ratioP1;P2;durP2;ratioP2
57893;SDS011;43710;47.460;19.034;2023-02-01T05:06:39;5.00;;;2.20;;
57893;SDS011;43710;47.460;19.034;2023-02-01T05:09:42;2.60;;;1.83;;
57893;SDS011;43710;47.460;19.034;2023-02-01T05:12:44;2.60;;;2.03;;
57893;SDS011;43710;47.460;19.034;2023-02-01T05:16:05;3.28;;;2.08;;
57893;SDS011;43710;47.460;19.034;2023-02-01T05:19:08;3.53;;;2.03;;
57893;SDS011;43710;47.460;19.034;2023-02-01T05:22:10;3.95;;;2.30;;
57893;SDS011;43710;47.460;19.034;2023-02-01T05:25:13;4.25;;;1.87;;
57893;SDS011;43710;47.460;19.034;2023-02-01T05:28:15;3.60;;;1.87;;
57893;SDS011;43710;47.460;19.034;2023-02-01T05:31:18;3.22;;;2.42;;
57893;SDS011;43710;47.460;19.034;2023-02-01T05:34:20;4.15;;;2.00;;
57893;SDS011;43710;47.460;19.034;2023-02-01T05:37:22;4.10;;;2.20;;
57893;SDS011;43710;47.460;19.034;2023-02-01T05:40:25;3.58;;;2.58;;
57893;SDS011;43710;47.460;19.034;2023-02-01T05:43:27;2.92;;;2.20;;
57893;SDS011;43710;47.460;19.034;2023-02-01T05:46:30;3.72;;;2.10;;
57893;SDS011;43710;47.460;19.034;2023-02-01T05:49:32;3.17;;;1.98;;
57893;SDS011;43710;47.460;19.034;2023-02-01T05:52:34;2.40;;;2.00;;
57893;SDS011;43710;47.460;19.034;2023-02-01T05:55:36;2.40;;;1.80;;
57893;SDS011;43710;47.460;19.034;2023-02-01T05:58:39;3.95;;;2.45;;
57893;SDS011;43710;47.460;19.034;2023-02-01T06:01:41;3.10;;;2.00;;
57893;SDS011;43710;47.460;19.034;2023-02-01T06:04:44;3.03;;;2.30;;
57893;SDS011;43710;47.460;19.034;2023-02-01T06:07:46;2.65;;;2.10;;
57893;SDS011;43710;47.460;19.034;2023-02-01T06:10:48;3.22;;;2.30;;
57893;SDS011;43710;47.460;19.034;2023-02-01T06:13:50;3.33;;;2.28;;
57893;SDS011;43710;47.460;19.034;2023-02-01T06:16:53;4.72;;;2.55;;
57893;SDS011;43710;47.460;19.034;2023-02-01T06:19:56;3.70;;;2.50;;
57893;SDS011;43710;47.460;19.034;2023-02-01T06:22:59;2.20;;;1.90;;
57893;SDS011;43710;47.460;19.034;2023-02-01T06:26:05;4.03;;;2.30;;
57893;SDS011;43710;47.460;19.034;2023-02-01T06:29:10;3.55;;;2.42;;
57893;SDS011;43710;47.460;19.034;2023-02-01T06:32:12;3.25;;;2.17;;
57893;SDS011;43710;47.460;19.034;2023-02-01T06:35:14;4.20;;;2.33;;
57893;SDS011;43710;47.460;19.034;2023-02-01T06:38:18;3.12;;;2.22;;
57893;SDS011;43710;47.460;19.034;2023-02-01T06:41:21;4.70;;;2.33;;
57893;SDS011;43710;47.460;19.034;2023-02-01T06:44:23;3.87;;;2.17;;
57893;SDS011;43710;47.460;19.034;2023-02-01T06:47:25;4.85;;;2.30;;
57893;SDS011;43710;47.460;19.034;2023-02-01T06:50:27;3.40;;;2.37;;
57893;SDS011;43710;47.460;19.034;2023-02-01T06:53:30;2.72;;;1.85;;
57893;SDS011;43710;47.460;19.034;2023-02-01T06:56:33;4.03;;;2.20;;
57893;SDS011;43710;47.460;19.034;2023-02-01T06:59:35;2.72;;;2.08;;
57893;SDS011;43710;47.460;19.034;2023-02-01T07:02:37;3.42;;;2.42;;
57893;SDS011;43710;47.460;19.034;2023-02-01T07:05:41;2.83;;;2.12;;
57893;SDS011;43710;47.460;19.034;2023-02-01T07:08:43;4.12;;;1.98;;
57893;SDS011;43710;47.460;19.034;2023-02-01T07:11:46;3.20;;;2.12;;
57893;SDS011;43710;47.460;19.034;2023-02-01T07:14:48;6.60;;;2.25;;
57893;SDS011;43710;47.460;19.034;2023-02-01T07:17:51;2.95;;;2.00;;
57893;SDS011;43710;47.460;19.034;2023-02-01T07:20:55;4.30;;;2.55;;
57893;SDS011;43710;47.460;19.034;2023-02-01T07:24:00;3.70;;;2.10;;
57893;SDS011;43710;47.460;19.034;2023-02-01T07:27:03;4.07;;;2.12;;
57893;SDS011;43710;47.460;19.034;2023-02-01T07:30:06;4.60;;;2.80;;
57893;SDS011;43710;47.460;19.034;2023-02-01T07:33:08;4.03;;;2.22;;
57893;SDS011;43710;47.460;19.034;2023-02-01T07:36:11;5.47;;;2.87;;
57893;SDS011;43710;47.460;19.034;2023-02-01T07:39:16;3.90;;;2.37;;
57893;SDS011;43710;47.460;19.034;2023-02-01T07:42:18;3.97;;;2.60;;
57893;SDS011;43710;47.460;19.034;2023-02-01T07:45:21;3.83;;;2.33;;
57893;SDS011;43710;47.460;19.034;2023-02-01T07:48:24;3.55;;;2.40;;
57893;SDS011;43710;47.460;19.034;2023-02-01T07:51:27;3.87;;;2.65;;
57893;SDS011;43710;47.460;19.034;2023-02-01T07:54:30;3.70;;;2.50;;
57893;SDS011;43710;47.460;19.034;2023-02-01T07:57:32;3.80;;;2.30;;
57893;SDS011;43710;47.460;19.034;2023-02-01T08:00:34;4.10;;;2.90;;
57893;SDS011;43710;47.460;19.034;2023-02-01T08:03:56;3.78;;;2.50;;
57893;SDS011;43710;47.460;19.034;2023-02-01T08:07:04;3.97;;;2.28;;
57893;SDS011;43710;47.460;19.034;2023-02-01T08:10:06;3.70;;;2.22;;
57893;SDS011;43710;47.460;19.034;2023-02-01T08:13:12;4.47;;;2.58;;
57893;SDS011;43710;47.460;19.034;2023-02-01T08:16:15;4.90;;;2.45;;
57893;SDS011;43710;47.460;19.034;2023-02-01T08:19:19;3.50;;;2.45;;
57893;SDS011;43710;47.460;19.034;2023-02-01T08:22:22;3.85;;;2.30;;
57893;SDS011;43710;47.460;19.034;2023-02-01T08:25:24;4.30;;;2.37;;
57893;SDS011;43710;47.460;19.034;2023-02-01T08:28:27;3.70;;;2.50;;
57893;SDS011;43710;47.460;19.034;2023-02-01T08:31:29;4.12;;;2.67;;
57893;SDS011;43710;47.460;19.034;2023-02-01T08:34:32;5.15;;;3.03;;
57893;SDS011;43710;47.460;19.034;2023-02-01T08:37:36;3.72;;;2.35;;
57893;SDS011;43710;47.460;19.034;2023-02-01T08:40:39;7.25;;;3.30;;
57893;SDS011;43710;47.460;19.034;2023-02-01T08:43:43;4.80;;;2.70;;
57893;SDS011;43710;47.460;19.034;2023-02-01T08:46:46;5.15;;;2.83;;
57893;SDS011;43710;47.460;19.034;2023-02-01T08:49:48;4.62;;;2.60;;
57893;SDS011;43710;47.460;19.034;2023-02-01T08:52:51;4.68;;;3.20;;
57893;SDS011;43710;47.460;19.034;2023-02-01T08:55:56;5.43;;;3.00;;
57893;SDS011;43710;47.460;19.034;2023-02-01T08:58:58;5.10;;;2.83;;
57893;SDS011;43710;47.460;19.034;2023-02-01T09:02:00;6.20;;;2.92;;
57893;SDS011;43710;47.460;19.034;2023-02-01T09:05:03;4.97;;;2.87;;
57893;SDS011;43710;47.460;19.034;2023-02-01T09:08:06;5.55;;;3.30;;
57893;SDS011;43710;47.460;19.034;2023-02-01T09:11:16;4.72;;;2.97;;
57893;SDS011;43710;47.460;19.034;2023-02-01T09:14:21;4.55;;;3.00;;
57893;SDS011;43710;47.460;19.034;2023-02-01T09:17:23;7.75;;;3.78;;
57893;SDS011;43710;47.460;19.034;2023-02-01T09:20:26;5.18;;;2.80;;
57893;SDS011;43710;47.460;19.034;2023-02-01T09:23:28;5.70;;;2.78;;
57893;SDS011;43710;47.460;19.034;2023-02-01T09:26:30;5.50;;;2.92;;
57893;SDS011;43710;47.460;19.034;2023-02-01T09:29:34;7.55;;;3.40;;
57893;SDS011;43710;47.460;19.034;2023-02-01T09:32:36;7.68;;;3.55;;
57893;SDS011;43710;47.460;19.034;2023-02-01T09:35:38;5.87;;;3.53;;
57893;SDS011;43710;47.460;19.034;2023-02-01T09:38:41;7.10;;;3.50;;
57893;SDS011;43710;47.460;19.034;2023-02-01T09:41:56;5.70;;;3.22;;
57893;SDS011;43710;47.460;19.034;2023-02-01T09:45:03;6.00;;;3.25;;
57893;SDS011;43710;47.460;19.034;2023-02-01T09:48:20;4.97;;;3.22;;
57893;SDS011;43710;47.460;19.034;2023-02-01T09:51:34;4.28;;;3.05;;
57893;SDS011;43710;47.460;19.034;2023-02-01T09:54:47;4.95;;;3.50;;
57893;SDS011;43710;47.460;19.034;2023-02-01T09:57:56;4.07;;;3.03;;
57893;SDS011;43710;47.460;19.034;2023-02-01T10:01:03;4.30;;;2.92;;
57893;SDS011;43710;47.460;19.034;2023-02-01T10:04:13;6.57;;;3.92;;
57893;SDS011;43710;47.460;19.034;2023-02-01T10:13:50;7.10;;;3.37;;
57893;SDS011;43710;47.460;19.034;2023-02-01T10:17:10;6.55;;;3.65;;
57893;SDS011;43710;47.460;19.034;2023-02-01T10:24:05;6.20;;;4.03;;
57893;SDS011;43710;47.460;19.034;2023-02-01T10:27:35;8.43;;;4.55;;
57893;SDS011;43710;47.460;19.034;2023-02-01T10:30:41;7.55;;;4.22;;
57893;SDS011;43710;47.460;19.034;2023-02-01T10:33:47;7.35;;;4.90;;
57893;SDS011;43710;47.460;19.034;2023-02-01T10:36:54;9.18;;;4.68;;
57893;SDS011;43710;47.460;19.034;2023-02-01T10:40:00;5.97;;;4.23;;
57893;SDS011;43710;47.460;19.034;2023-02-01T10:43:11;7.85;;;4.80;;
57893;SDS011;43710;47.460;19.034;2023-02-01T10:46:14;6.30;;;4.72;;
57893;SDS011;43710;47.460;19.034;2023-02-01T10:52:52;8.30;;;5.53;;
57893;SDS011;43710;47.460;19.034;2023-02-01T10:56:05;6.70;;;4.55;;
57893;SDS011;43710;47.460;19.034;2023-02-01T10:59:14;5.78;;;4.37;;
57893;SDS011;43710;47.460;19.034;2023-02-01T11:02:22;6.57;;;4.87;;
57893;SDS011;43710;47.460;19.034;2023-02-01T11:05:33;6.32;;;4.97;;
57893;SDS011;43710;47.460;19.034;2023-02-01T11:08:51;7.22;;;4.10;;
57893;SDS011;43710;47.460;19.034;2023-02-01T11:11:56;6.47;;;4.05;;
57893;SDS011;43710;47.460;19.034;2023-02-01T11:15:19;5.22;;;3.80;;
57893;SDS011;43710;47.460;19.034;2023-02-01T11:18:28;8.05;;;4.57;;
57893;SDS011;43710;47.460;19.034;2023-02-01T11:21:33;11.02;;;4.50;;
57893;SDS011;43710;47.460;19.034;2023-02-01T11:24:36;8.02;;;4.32;;
57893;SDS011;43710;47.460;19.034;2023-02-01T11:27:41;7.68;;;4.50;;
57893;SDS011;43710;47.460;19.034;2023-02-01T11:30:56;8.40;;;4.60;;
57893;SDS011;43710;47.460;19.034;2023-02-01T11:34:06;9.20;;;5.03;;
57893;SDS011;43710;47.460;19.034;2023-02-01T11:37:30;7.35;;;5.18;;
57893;SDS011;43710;47.460;19.034;2023-02-01T11:40:37;6.93;;;4.83;;
57893;SDS011;43710;47.460;19.034;2023-02-01T11:43:50;10.60;;;5.68;;
57893;SDS011;43710;47.460;19.034;2023-02-01T11:50:26;9.35;;;5.37;;
57893;SDS011;43710;47.460;19.034;2023-02-01T12:00:32;9.45;;;5.20;;
57893;SDS011;43710;47.460;19.034;2023-02-01T12:04:28;8.98;;;4.97;;
57893;SDS011;43710;47.460;19.034;2023-02-01T12:07:34;8.50;;;5.25;;
57893;SDS011;43710;47.460;19.034;2023-02-01T12:37:58;7.60;;;4.32;;
57893;SDS011;43710;47.460;19.034;2023-02-01T12:44:47;9.20;;;4.47;;
57893;SDS011;43710;47.460;19.034;2023-02-01T12:51:44;6.68;;;3.83;;
57893;SDS011;43710;47.460;19.034;2023-02-01T12:58:06;6.32;;;3.40;;
57893;SDS011;43710;47.460;19.034;2023-02-01T13:04:24;6.97;;;3.92;;
57893;SDS011;43710;47.460;19.034;2023-02-01T13:07:41;9.13;;;3.90;;
57893;SDS011;43710;47.460;19.034;2023-02-01T13:10:59;6.90;;;3.78;;
57893;SDS011;43710;47.460;19.034;2023-02-01T13:17:48;6.37;;;3.28;;
57893;SDS011;43710;47.460;19.034;2023-02-01T13:20:54;4.87;;;3.50;;
57893;SDS011;43710;47.460;19.034;2023-02-01T13:24:04;5.07;;;3.40;;
57893;SDS011;43710;47.460;19.034;2023-02-01T13:27:16;4.78;;;3.03;;
57893;SDS011;43710;47.460;19.034;2023-02-01T13:30:30;5.53;;;3.72;;
57893;SDS011;43710;47.460;19.034;2023-02-01T13:43:46;6.03;;;3.85;;
57893;SDS011;43710;47.460;19.034;2023-02-01T13:46:52;5.90;;;3.65;;
57893;SDS011;43710;47.460;19.034;2023-02-01T13:50:03;6.10;;;3.80;;
57893;SDS011;43710;47.460;19.034;2023-02-01T13:53:27;5.45;;;3.72;;
57893;SDS011;43710;47.460;19.034;2023-02-01T13:56:39;7.37;;;4.00;;
57893;SDS011;43710;47.460;19.034;2023-02-01T14:02:47;5.93;;;4.05;;
57893;SDS011;43710;47.460;19.034;2023-02-01T14:13:00;6.78;;;3.55;;
57893;SDS011;43710;47.460;19.034;2023-02-01T14:19:22;6.35;;;3.33;;
57893;SDS011;43710;47.460;19.034;2023-02-01T14:22:32;7.95;;;4.12;;
57893;SDS011;43710;47.460;19.034;2023-02-01T14:25:36;9.00;;;4.60;;
57893;SDS011;43710;47.460;19.034;2023-02-01T14:28:39;7.15;;;3.30;;
57893;SDS011;43710;47.460;19.034;2023-02-01T14:31:48;6.35;;;3.70;;
57893;SDS011;43710;47.460;19.034;2023-02-01T14:34:53;7.55;;;4.28;;
57893;SDS011;43710;47.460;19.034;2023-02-01T14:38:01;7.20;;;4.53;;
57893;SDS011;43710;47.460;19.034;2023-02-01T14:44:36;7.82;;;4.35;;
57893;SDS011;43710;47.460;19.034;2023-02-01T14:47:39;7.20;;;4.47;;
57893;SDS011;43710;47.460;19.034;2023-02-01T14:50:43;7.60;;;4.12;;
57893;SDS011;43710;47.460;19.034;2023-02-01T14:53:48;6.32;;;3.53;;
57893;SDS011;43710;47.460;19.034;2023-02-01T14:56:53;6.12;;;3.90;;
57893;SDS011;43710;47.460;19.034;2023-02-01T15:00:00;6.22;;;2.97;;
57893;SDS011;43710;47.460;19.034;2023-02-01T15:09:45;4.47;;;2.37;;
57893;SDS011;43710;47.460;19.034;2023-02-01T15:12:49;4.80;;;2.03;;
57893;SDS011;43710;47.460;19.034;2023-02-01T15:16:14;4.72;;;2.03;;
57893;SDS011;43710;47.460;19.034;2023-02-01T15:19:16;4.15;;;1.80;;
57893;SDS011;43710;47.460;19.034;2023-02-01T15:22:19;5.62;;;1.90;;
57893;SDS011;43710;47.460;19.034;2023-02-01T15:25:23;4.72;;;1.70;;
57893;SDS011;43710;47.460;19.034;2023-02-01T15:28:27;5.43;;;1.85;;
57893;SDS011;43710;47.460;19.034;2023-02-01T15:31:34;3.28;;;1.80;;
57893;SDS011;43710;47.460;19.034;2023-02-01T15:34:48;4.35;;;1.52;;
57893;SDS011;43710;47.460;19.034;2023-02-01T15:37:51;10.25;;;1.87;;
57893;SDS011;43710;47.460;19.034;2023-02-01T15:44:09;2.67;;;1.65;;
57893;SDS011;43710;47.460;19.034;2023-02-01T15:47:18;3.25;;;1.80;;
57893;SDS011;43710;47.460;19.034;2023-02-01T15:50:26;4.15;;;1.98;;
57893;SDS011;43710;47.460;19.034;2023-02-01T15:53:31;4.78;;;2.17;;
57893;SDS011;43710;47.460;19.034;2023-02-01T15:56:35;5.93;;;2.22;;
57893;SDS011;43710;47.460;19.034;2023-02-01T15:59:43;6.00;;;2.03;;
57893;SDS011;43710;47.460;19.034;2023-02-01T16:06:09;3.30;;;1.65;;
57893;SDS011;43710;47.460;19.034;2023-02-01T16:09:14;4.22;;;1.80;;
57893;SDS011;43710;47.460;19.034;2023-02-01T16:12:31;5.32;;;2.00;;
57893;SDS011;43710;47.460;19.034;2023-02-01T16:15:40;4.47;;;1.90;;
57893;SDS011;43710;47.460;19.034;2023-02-01T16:18:42;5.47;;;1.73;;
57893;SDS011;43710;47.460;19.034;2023-02-01T16:21:46;3.80;;;1.60;;
57893;SDS011;43710;47.460;19.034;2023-02-01T16:24:49;2.72;;;1.48;;
57893;SDS011;43710;47.460;19.034;2023-02-01T16:27:51;5.25;;;1.80;;
57893;SDS011;43710;47.460;19.034;2023-02-01T16:30:53;3.65;;;1.70;;
57893;SDS011;43710;47.460;19.034;2023-02-01T16:33:56;6.62;;;2.17;;
57893;SDS011;43710;47.460;19.034;2023-02-01T16:36:58;5.25;;;2.00;;
57893;SDS011;43710;47.460;19.034;2023-02-01T16:40:02;3.95;;;1.75;;
57893;SDS011;43710;47.460;19.034;2023-02-01T16:43:10;4.07;;;1.80;;
57893;SDS011;43710;47.460;19.034;2023-02-01T16:46:15;4.75;;;1.45;;
57893;SDS011;43710;47.460;19.034;2023-02-01T16:49:23;2.95;;;1.67;;
